KFNT/FNT METAR and TAF weather

Enter ICAO airport designator
Station Type Date Time Source
KFNT METAR 2018/12/15 03:03 UTC NOAA

KFNT 150303Z 27003KT 1/2SM R09/1800V3000FT FZFG VV002 M01/M01 A3022 RMK AO2 T10061006


Station Type Date Time Source
KFNT Decoded METAR 2018/12/15 03:03 UTC NOAA

FLINT BISHOP INTERNATIONAL AIRPORT, MI, United States (KFNT) 42-58N 83-45W 233M
Dec 14, 2018 - 10:03 PM EST / 2018.12.15 0303 UTC
Wind: from the W (270 degrees) at 3 MPH (3 KT) (direction variable):0
Visibility: 1/2 mile(s):0
Sky conditions: obscured
Weather: freezing fog
Temperature: 30.9 F (-0.6 C)
Dew Point: 30.9 F (-0.6 C)
Relative Humidity: 100%
Pressure (altimeter): 30.22 in. Hg (1023 hPa)
ob: KFNT 150303Z 27003KT 1/2SM R09/1800V3000FT FZFG VV002 M01/M01 A3022 RMK AO2 T10061006
cycle: 3

Station Type Date Time Source
KFNT TAF 2018/12/14 21:58 UTC NOAA

TAF
AMD KFNT 142057Z 1421/1518 27005KT 1/4SM FG OVC004
FM142300 VRB02KT 2SM BR OVC005
FM150500 VRB03KT 2SM BR SCT010 SCT200
FM151400 04009KT P6SM SCT200


Example: see airport list